createdAt,value
2023-05-18T00:00:16.126Z,84
2023-05-18T00:00:47.740Z,84
2023-05-18T00:01:17.989Z,84
2023-05-18T00:01:51.777Z,84
2023-05-18T00:02:23.900Z,84
2023-05-18T00:02:46.848Z,84
2023-05-18T00:03:09.384Z,84
2023-05-18T00:03:46.632Z,84
2023-05-18T00:04:15.661Z,84
2023-05-18T00:04:47.522Z,84
2023-05-18T00:05:18.191Z,84
2023-05-18T00:05:51.580Z,85
2023-05-18T00:06:23.283Z,85
2023-05-18T00:06:46.385Z,85
2023-05-18T00:07:11.148Z,85
2023-05-18T00:07:44.715Z,85
2023-05-18T00:08:15.484Z,85
2023-05-18T00:08:49.263Z,85
2023-05-18T00:09:19.577Z,85
2023-05-18T00:09:51.278Z,85
2023-05-18T00:10:24.209Z,85
2023-05-18T00:10:46.829Z,85
2023-05-18T00:11:09.217Z,85
2023-05-18T00:11:43.557Z,85
2023-05-18T00:12:16.826Z,85
2023-05-18T00:12:48.199Z,85
2023-05-18T00:13:19.777Z,85
2023-05-18T00:13:53.175Z,85
2023-05-18T00:14:23.538Z,85
2023-05-18T00:14:47.565Z,85
2023-05-18T00:15:09.148Z,85
2023-05-18T00:15:43.766Z,85
2023-05-18T00:16:15.614Z,85
2023-05-18T00:16:47.823Z,86
2023-05-18T00:17:18.268Z,86
2023-05-18T00:17:51.479Z,86
2023-05-18T00:18:25.890Z,86
2023-05-18T00:18:48.002Z,86
2023-05-18T00:19:09.810Z,86
2023-05-18T00:19:44.621Z,86
2023-05-18T00:20:15.520Z,86
2023-05-18T00:20:47.968Z,86
2023-05-18T00:21:17.655Z,86
2023-05-18T00:21:51.296Z,86
2023-05-18T00:22:23.295Z,86
2023-05-18T00:22:48.148Z,86
2023-05-18T00:23:08.843Z,86
2023-05-18T00:23:43.678Z,86
2023-05-18T00:24:16.287Z,86
2023-05-18T00:24:48.691Z,87
2023-05-18T00:25:18.403Z,87
2023-05-18T00:25:51.387Z,87
2023-05-18T00:26:23.500Z,87
2023-05-18T00:26:51.639Z,87
2023-05-18T00:27:09.025Z,87
2023-05-18T00:27:43.757Z,87
2023-05-18T00:28:15.277Z,87
2023-05-18T00:28:49.203Z,87
2023-05-18T00:29:19.574Z,87
2023-05-18T00:29:51.363Z,87
2023-05-18T00:30:23.463Z,88
2023-05-18T00:30:46.141Z,88
2023-05-18T00:31:08.660Z,88
2023-05-18T00:31:43.669Z,88
2023-05-18T00:32:15.809Z,88
2023-05-18T00:32:49.498Z,88
2023-05-18T00:33:17.822Z,88
2023-05-18T00:33:51.282Z,88
2023-05-18T00:34:24.474Z,88
2023-05-18T00:34:47.198Z,88
2023-05-18T00:35:09.574Z,88
2023-05-18T00:35:43.863Z,88
2023-05-18T00:36:15.662Z,88
2023-05-18T00:36:47.281Z,88
2023-05-18T00:37:17.549Z,88
2023-05-18T00:37:51.562Z,88
2023-05-18T00:38:23.598Z,88
2023-05-18T00:38:46.229Z,88
2023-05-18T00:39:09.123Z,88
2023-05-18T00:39:43.778Z,88
2023-05-18T00:40:15.678Z,88
2023-05-18T00:40:47.309Z,88
2023-05-18T00:41:17.958Z,88
2023-05-18T00:41:51.472Z,88
2023-05-18T00:42:24.498Z,89
2023-05-18T00:42:46.946Z,89
2023-05-18T00:43:09.397Z,88
2023-05-18T00:43:44.122Z,88
2023-05-18T00:44:15.430Z,88
2023-05-18T00:44:47.251Z,88
2023-05-18T00:45:18.186Z,88
2023-05-18T00:45:51.449Z,88
2023-05-18T00:46:23.593Z,88
2023-05-18T00:46:45.981Z,88
2023-05-18T00:47:08.713Z,88
2023-05-18T00:47:43.840Z,88
2023-05-18T00:48:15.311Z,88
2023-05-18T00:48:47.320Z,88
2023-05-18T00:49:18.287Z,88
2023-05-18T00:49:51.516Z,88
2023-05-18T00:50:26.126Z,88
2023-05-18T00:50:48.438Z,88
2023-05-18T00:51:11.314Z,88
2023-05-18T00:51:44.003Z,88
2023-05-18T00:52:15.872Z,88
2023-05-18T00:52:48.277Z,88
2023-05-18T00:53:17.604Z,88
2023-05-18T00:53:52.085Z,88
2023-05-18T00:54:23.546Z,88
2023-05-18T00:54:46.285Z,88
2023-05-18T00:55:08.846Z,88
2023-05-18T00:55:43.239Z,88
2023-05-18T00:56:16.511Z,88
2023-05-18T00:56:47.357Z,88
2023-05-18T00:57:18.266Z,88
2023-05-18T00:57:52.682Z,88
2023-05-18T00:58:23.889Z,88
2023-05-18T00:58:46.265Z,88
2023-05-18T00:59:08.591Z,88
2023-05-18T00:59:44.706Z,88
2023-05-18T01:00:15.907Z,88
2023-05-18T01:00:48.104Z,88
2023-05-18T01:01:35.871Z,88
2023-05-18T01:01:58.657Z,88
2023-05-18T01:02:21.472Z,88
2023-05-18T01:02:44.018Z,88
2023-05-18T01:03:06.813Z,88
2023-05-18T01:03:44.987Z,88
2023-05-18T01:04:15.229Z,88
2023-05-18T01:04:47.325Z,88
2023-05-18T01:05:17.761Z,88
2023-05-18T01:05:54.024Z,88
2023-05-18T01:06:23.127Z,88
2023-05-18T01:06:46.407Z,88
2023-05-18T01:07:09.085Z,88
2023-05-18T01:07:43.391Z,87
2023-05-18T01:08:15.188Z,87
2023-05-18T01:08:47.163Z,87
2023-05-18T01:09:17.787Z,87
2023-05-18T01:09:51.258Z,87
2023-05-18T01:10:23.651Z,87
2023-05-18T01:10:45.761Z,87
2023-05-18T01:11:08.250Z,87
2023-05-18T01:11:43.326Z,87
2023-05-18T01:12:15.769Z,88
2023-05-18T01:12:47.194Z,87
2023-05-18T01:13:19.027Z,88
2023-05-18T01:13:51.300Z,88
2023-05-18T01:14:23.781Z,88
2023-05-18T01:14:46.171Z,88
2023-05-18T01:15:09.042Z,88
2023-05-18T01:15:43.628Z,88
2023-05-18T01:16:15.276Z,88
2023-05-18T01:16:47.167Z,88
2023-05-18T01:17:17.735Z,88
2023-05-18T01:17:51.444Z,88
2023-05-18T01:18:23.322Z,88
2023-05-18T01:18:46.187Z,88
2023-05-18T01:19:08.488Z,88
2023-05-18T01:19:43.389Z,88
2023-05-18T01:20:15.484Z,88
2023-05-18T01:20:47.435Z,88
2023-05-18T01:21:17.557Z,88
2023-05-18T01:21:51.319Z,88
2023-05-18T01:22:23.179Z,88
2023-05-18T01:22:46.635Z,88
2023-05-18T01:23:09.129Z,88
2023-05-18T01:23:43.269Z,88
2023-05-18T01:24:15.344Z,88
2023-05-18T01:24:47.437Z,88
2023-05-18T01:25:17.580Z,88
2023-05-18T01:25:51.500Z,88
2023-05-18T01:26:23.634Z,88
2023-05-18T01:26:48.005Z,89
2023-05-18T01:27:08.808Z,89
2023-05-18T01:27:43.399Z,89
2023-05-18T01:28:15.530Z,89
2023-05-18T01:28:47.199Z,89
2023-05-18T01:29:19.405Z,89
2023-05-18T01:29:51.190Z,89
2023-05-18T01:30:23.455Z,89
2023-05-18T01:30:47.344Z,89
2023-05-18T01:31:09.583Z,89
2023-05-18T01:31:43.394Z,89
2023-05-18T01:32:15.343Z,89
2023-05-18T01:32:47.657Z,89
2023-05-18T01:33:17.499Z,89
2023-05-18T01:33:51.290Z,89
2023-05-18T01:34:23.181Z,89
2023-05-18T01:34:45.829Z,89
2023-05-18T01:35:08.241Z,89
2023-05-18T01:35:43.281Z,90
2023-05-18T01:36:15.156Z,90
2023-05-18T01:36:47.365Z,90
2023-05-18T01:37:17.539Z,90
2023-05-18T01:37:51.218Z,90
2023-05-18T01:38:23.112Z,90
2023-05-18T01:38:46.239Z,90
2023-05-18T01:39:08.526Z,90
2023-05-18T01:39:43.623Z,90
2023-05-18T01:40:15.423Z,90
2023-05-18T01:40:47.259Z,90
2023-05-18T01:41:17.724Z,90
2023-05-18T01:41:51.264Z,90
2023-05-18T01:42:23.153Z,90
2023-05-18T01:42:46.420Z,90
2023-05-18T01:43:08.482Z,90
2023-05-18T01:43:43.490Z,90
2023-05-18T01:44:15.256Z,90
2023-05-18T01:44:47.249Z,90
2023-05-18T01:45:17.825Z,90
2023-05-18T01:45:51.362Z,90
2023-05-18T01:46:23.620Z,90
2023-05-18T01:46:46.079Z,90
2023-05-18T01:47:08.554Z,90
2023-05-18T01:47:43.335Z,90
2023-05-18T01:48:15.387Z,90
2023-05-18T01:48:47.271Z,90
2023-05-18T01:49:17.619Z,90
2023-05-18T01:49:51.870Z,90
2023-05-18T01:50:23.508Z,90
2023-05-18T01:50:46.835Z,90
2023-05-18T01:51:09.384Z,90
2023-05-18T01:51:43.525Z,90
2023-05-18T01:52:15.335Z,90
2023-05-18T01:52:47.774Z,90
2023-05-18T01:53:17.555Z,90
2023-05-18T01:53:51.553Z,90
2023-05-18T01:54:23.256Z,90
2023-05-18T01:54:46.155Z,90
2023-05-18T01:55:08.522Z,90
2023-05-18T01:55:43.267Z,90
2023-05-18T01:56:15.740Z,90
2023-05-18T01:56:47.326Z,90
2023-05-18T01:57:17.837Z,90
2023-05-18T01:57:51.191Z,90
2023-05-18T01:58:23.429Z,90
2023-05-18T01:58:46.591Z,90
2023-05-18T01:59:08.796Z,90
2023-05-18T01:59:43.393Z,90
2023-05-18T02:00:20.871Z,90
2023-05-18T02:00:44.244Z,90
2023-05-18T02:01:20.461Z,90
2023-05-18T02:01:52.008Z,90
2023-05-18T02:02:23.809Z,90
2023-05-18T02:02:46.510Z,90
2023-05-18T02:03:09.795Z,90
2023-05-18T02:04:16.096Z,91
2023-05-18T02:04:49.686Z,91
2023-05-18T02:05:18.244Z,91
2023-05-18T02:05:51.261Z,91
2023-05-18T02:06:23.365Z,91
2023-05-18T02:06:45.826Z,91
2023-05-18T02:07:08.389Z,91
2023-05-18T02:07:43.899Z,91
2023-05-18T02:08:15.546Z,91
2023-05-18T02:08:47.733Z,91
2023-05-18T02:09:17.687Z,91
2023-05-18T02:09:51.941Z,91
2023-05-18T02:10:23.805Z,91
2023-05-18T02:10:46.441Z,91
2023-05-18T02:11:08.998Z,91
2023-05-18T02:11:43.273Z,91
2023-05-18T02:12:17.771Z,91
2023-05-18T02:12:47.705Z,91
2023-05-18T02:13:20.001Z,91
2023-05-18T02:13:52.095Z,91
2023-05-18T02:14:24.186Z,91
2023-05-18T02:14:46.819Z,91
2023-05-18T02:15:09.628Z,92
2023-05-18T02:15:43.923Z,92
2023-05-18T02:16:15.853Z,92
2023-05-18T02:16:48.025Z,92
2023-05-18T02:17:19.510Z,92
2023-05-18T02:17:51.657Z,92
2023-05-18T02:18:23.722Z,92
2023-05-18T02:18:46.697Z,92
2023-05-18T02:19:10.126Z,92
2023-05-18T02:19:43.271Z,92
2023-05-18T02:20:18.556Z,92
2023-05-18T02:20:47.335Z,92
2023-05-18T02:21:17.901Z,92
2023-05-18T02:21:51.798Z,92
2023-05-18T02:22:24.177Z,92
2023-05-18T02:22:46.778Z,92
2023-05-18T02:23:09.540Z,92
2023-05-18T02:23:43.983Z,92
2023-05-18T02:24:15.344Z,92
2023-05-18T02:24:47.189Z,92
2023-05-18T02:25:17.712Z,92
2023-05-18T02:25:54.509Z,92
2023-05-18T02:26:23.428Z,92
2023-05-18T02:26:46.087Z,92
2023-05-18T02:27:08.902Z,92
2023-05-18T02:27:43.858Z,92
2023-05-18T02:28:15.588Z,92
2023-05-18T02:28:47.500Z,92
2023-05-18T02:29:18.477Z,92
2023-05-18T02:29:51.131Z,92
2023-05-18T02:30:24.839Z,92
2023-05-18T02:30:46.232Z,92
2023-05-18T02:31:08.597Z,92
2023-05-18T02:31:45.063Z,92
2023-05-18T02:32:15.524Z,92
2023-05-18T02:32:48.211Z,92
2023-05-18T02:33:17.768Z,92
2023-05-18T02:33:51.457Z,92
2023-05-18T02:34:23.295Z,92
2023-05-18T02:34:45.785Z,92
2023-05-18T02:35:08.665Z,92
2023-05-18T02:35:43.240Z,92
2023-05-18T02:36:15.752Z,92
2023-05-18T02:36:47.956Z,92
2023-05-18T02:37:17.850Z,92
2023-05-18T02:37:51.226Z,92
2023-05-18T02:38:23.455Z,92
2023-05-18T02:38:46.150Z,92
2023-05-18T02:39:09.072Z,92
2023-05-18T02:39:44.092Z,93
2023-05-18T02:40:15.190Z,92
2023-05-18T02:40:47.654Z,93
2023-05-18T02:41:17.601Z,93
2023-05-18T02:41:52.217Z,93
2023-05-18T02:42:23.244Z,93
2023-05-18T02:42:45.925Z,93
2023-05-18T02:43:10.275Z,93
2023-05-18T02:43:44.630Z,93
2023-05-18T02:44:15.557Z,93
2023-05-18T02:44:49.287Z,93
2023-05-18T02:45:22.817Z,93
2023-05-18T02:45:45.384Z,93
2023-05-18T02:46:20.115Z,93
2023-05-18T02:46:49.264Z,93
2023-05-18T02:47:27.570Z,93
2023-05-18T02:47:50.246Z,93
2023-05-18T02:48:12.760Z,93
2023-05-18T02:48:47.280Z,93
2023-05-18T02:49:18.387Z,93
2023-05-18T02:49:51.901Z,93
2023-05-18T02:50:23.881Z,93
2023-05-18T02:50:46.549Z,93
2023-05-18T02:51:10.996Z,93
2023-05-18T02:51:43.542Z,93
2023-05-18T02:52:15.430Z,93
2023-05-18T02:52:47.467Z,93
2023-05-18T02:53:17.676Z,93
2023-05-18T02:53:51.162Z,93
2023-05-18T02:54:23.511Z,93
2023-05-18T02:54:46.446Z,93
2023-05-18T02:55:08.480Z,93
2023-05-18T02:55:44.260Z,93
2023-05-18T02:56:15.319Z,93
2023-05-18T02:56:47.261Z,93
2023-05-18T02:57:18.337Z,93
2023-05-18T02:57:53.057Z,93
2023-05-18T02:58:23.460Z,93
2023-05-18T02:58:46.253Z,93
2023-05-18T02:59:09.118Z,93
2023-05-18T02:59:43.394Z,93
2023-05-18T03:00:47.774Z,93
2023-05-18T03:01:18.136Z,94
2023-05-18T03:01:51.477Z,94
2023-05-18T03:02:23.553Z,94
2023-05-18T03:02:46.224Z,94
2023-05-18T03:03:10.293Z,94
2023-05-18T03:04:16.021Z,94
2023-05-18T03:04:49.515Z,94
2023-05-18T03:05:18.940Z,94
2023-05-18T03:05:52.082Z,94
2023-05-18T03:06:23.533Z,94
2023-05-18T03:06:46.133Z,94
2023-05-18T03:07:08.887Z,94
2023-05-18T03:07:43.267Z,94
2023-05-18T03:08:15.661Z,94
2023-05-18T03:08:47.829Z,94
2023-05-18T03:09:18.067Z,94
2023-05-18T03:09:51.892Z,94
2023-05-18T03:10:23.340Z,94
2023-05-18T03:10:45.941Z,94
2023-05-18T03:11:08.759Z,94
2023-05-18T03:11:43.581Z,94
2023-05-18T03:12:15.936Z,94
2023-05-18T03:12:47.363Z,94
2023-05-18T03:13:19.259Z,94
2023-05-18T03:13:52.307Z,94
2023-05-18T03:14:23.657Z,94
2023-05-18T03:14:46.353Z,94
2023-05-18T03:15:09.472Z,94
2023-05-18T03:15:43.407Z,94
2023-05-18T03:16:15.831Z,94
2023-05-18T03:16:47.788Z,94
2023-05-18T03:17:18.061Z,94
2023-05-18T03:17:51.833Z,94
2023-05-18T03:18:23.974Z,94
2023-05-18T03:18:46.697Z,94
2023-05-18T03:19:09.338Z,94
2023-05-18T03:19:43.553Z,94
2023-05-18T03:20:15.470Z,94
2023-05-18T03:20:47.716Z,94
2023-05-18T03:21:18.143Z,94
2023-05-18T03:21:51.349Z,94
2023-05-18T03:22:24.917Z,94
2023-05-18T03:22:46.226Z,94
2023-05-18T03:23:09.021Z,94
2023-05-18T03:23:43.732Z,94
2023-05-18T03:24:15.723Z,94
2023-05-18T03:24:47.124Z,94
2023-05-18T03:25:17.611Z,94
2023-05-18T03:25:51.313Z,94
2023-05-18T03:26:23.418Z,94
2023-05-18T03:26:46.098Z,94
2023-05-18T03:27:09.270Z,94
2023-05-18T03:27:43.856Z,94
2023-05-18T03:28:16.776Z,94
2023-05-18T03:28:47.314Z,94
2023-05-18T03:29:17.840Z,94
2023-05-18T03:29:52.136Z,94
2023-05-18T03:30:26.792Z,94
2023-05-18T03:30:49.398Z,94
2023-05-18T03:31:27.614Z,94
2023-05-18T03:31:50.611Z,94
2023-05-18T03:32:13.471Z,94
2023-05-18T03:32:47.853Z,94
2023-05-18T03:33:18.383Z,94
2023-05-18T03:33:51.186Z,94
2023-05-18T03:34:23.364Z,94
2023-05-18T03:34:46.049Z,94
2023-05-18T03:35:08.282Z,94
2023-05-18T03:35:43.442Z,95
2023-05-18T03:36:18.538Z,94
2023-05-18T03:36:48.113Z,94
2023-05-18T03:37:18.078Z,95
2023-05-18T03:37:51.533Z,95
2023-05-18T03:38:23.261Z,95
2023-05-18T03:38:46.034Z,95
2023-05-18T03:39:08.798Z,95
2023-05-18T03:39:43.525Z,95
2023-05-18T03:40:18.206Z,95
2023-05-18T03:40:47.501Z,95
2023-05-18T03:41:18.088Z,95
2023-05-18T03:41:51.323Z,95
2023-05-18T03:42:23.267Z,95
2023-05-18T03:42:46.061Z,95
2023-05-18T03:43:09.267Z,95
2023-05-18T03:43:43.423Z,95
2023-05-18T03:44:15.349Z,95
2023-05-18T03:44:47.571Z,95
2023-05-18T03:45:18.840Z,95
2023-05-18T03:45:51.860Z,95
2023-05-18T03:46:25.365Z,95
2023-05-18T03:46:46.776Z,95
2023-05-18T03:47:09.861Z,95
2023-05-18T03:47:43.978Z,95
2023-05-18T03:48:17.868Z,95
2023-05-18T03:48:47.675Z,95
2023-05-18T03:49:19.090Z,95
2023-05-18T03:49:51.639Z,95
2023-05-18T03:50:23.945Z,95
2023-05-18T03:50:46.849Z,95
2023-05-18T03:51:08.812Z,95
2023-05-18T03:51:43.766Z,95
2023-05-18T03:52:15.492Z,95
2023-05-18T03:52:47.514Z,95
2023-05-18T03:53:19.880Z,95
2023-05-18T03:53:51.740Z,95
2023-05-18T03:54:23.350Z,95
2023-05-18T03:54:45.984Z,95
2023-05-18T03:55:08.373Z,95
2023-05-18T03:55:43.387Z,95
2023-05-18T03:56:15.706Z,95
2023-05-18T03:56:47.771Z,95
2023-05-18T03:57:21.067Z,95
2023-05-18T03:57:51.660Z,95
2023-05-18T03:58:23.649Z,95
2023-05-18T03:58:46.460Z,95
2023-05-18T03:59:09.584Z,95
2023-05-18T03:59:44.045Z,95
2023-05-18T04:00:19.402Z,95
2023-05-18T04:00:48.556Z,95
2023-05-18T04:01:17.885Z,95
2023-05-18T04:01:52.067Z,95
2023-05-18T04:02:23.769Z,95
2023-05-18T04:02:46.108Z,95
2023-05-18T04:03:10.042Z,95
2023-05-18T04:03:44.885Z,95
2023-05-18T04:04:16.352Z,95
2023-05-18T04:04:48.658Z,95
2023-05-18T04:05:18.414Z,95
2023-05-18T04:05:51.770Z,95
2023-05-18T04:06:23.320Z,95
2023-05-18T04:06:46.008Z,95
2023-05-18T04:07:08.695Z,95
2023-05-18T04:07:44.467Z,95
2023-05-18T04:08:15.490Z,95
2023-05-18T04:08:48.153Z,95
2023-05-18T04:09:18.135Z,95
2023-05-18T04:09:51.383Z,95
2023-05-18T04:10:23.289Z,95
2023-05-18T04:10:46.277Z,95
2023-05-18T04:11:08.447Z,95
2023-05-18T04:11:43.835Z,95
2023-05-18T04:12:15.916Z,95
2023-05-18T04:12:47.831Z,95
2023-05-18T04:13:18.954Z,95
2023-05-18T04:13:51.407Z,95
2023-05-18T04:14:23.768Z,95
2023-05-18T04:14:46.660Z,95
2023-05-18T04:15:09.579Z,95
2023-05-18T04:15:44.341Z,95
2023-05-18T04:16:15.214Z,95
2023-05-18T04:16:47.794Z,95
2023-05-18T04:17:18.147Z,95
2023-05-18T04:17:51.933Z,95
2023-05-18T04:18:23.809Z,95
2023-05-18T04:18:46.499Z,95
2023-05-18T04:19:09.008Z,95
2023-05-18T04:19:43.569Z,95
2023-05-18T04:20:15.832Z,96
2023-05-18T04:20:47.496Z,95
2023-05-18T04:21:18.278Z,95
2023-05-18T04:21:51.602Z,95
2023-05-18T04:22:24.270Z,96
2023-05-18T04:22:47.069Z,96
2023-05-18T04:23:09.614Z,95
2023-05-18T04:23:43.833Z,96
2023-05-18T04:24:15.607Z,95
2023-05-18T04:24:48.605Z,96
2023-05-18T04:25:18.218Z,96
2023-05-18T04:25:51.925Z,96
2023-05-18T04:26:24.165Z,96
2023-05-18T04:26:46.020Z,96
2023-05-18T04:27:09.993Z,96
2023-05-18T04:27:43.626Z,96
2023-05-18T04:28:15.570Z,96
2023-05-18T04:28:48.041Z,96
2023-05-18T04:29:17.903Z,96
2023-05-18T04:29:51.983Z,96
2023-05-18T04:30:24.941Z,96
2023-05-18T04:30:46.427Z,96
2023-05-18T04:31:08.940Z,96
2023-05-18T04:31:45.041Z,96
2023-05-18T04:32:16.896Z,96
2023-05-18T04:32:48.445Z,96
2023-05-18T04:33:19.362Z,96
2023-05-18T04:33:51.568Z,96
2023-05-18T04:34:25.633Z,96
2023-05-18T04:34:46.378Z,96
2023-05-18T04:35:09.033Z,96
2023-05-18T04:35:43.325Z,96
2023-05-18T04:36:16.218Z,96
2023-05-18T04:36:47.877Z,96
2023-05-18T04:37:18.381Z,96
2023-05-18T04:37:51.249Z,96
2023-05-18T04:38:23.736Z,96
2023-05-18T04:38:46.338Z,96
2023-05-18T04:39:08.608Z,96
2023-05-18T04:39:43.432Z,96
2023-05-18T04:40:15.521Z,96
2023-05-18T04:40:48.955Z,96
2023-05-18T04:41:19.279Z,96
2023-05-18T04:41:51.475Z,96
2023-05-18T04:42:23.302Z,96
2023-05-18T04:42:45.986Z,96
2023-05-18T04:43:08.457Z,96
2023-05-18T04:43:49.701Z,96
2023-05-18T04:44:12.013Z,96
2023-05-18T04:44:47.193Z,96
2023-05-18T04:45:18.020Z,96
2023-05-18T04:45:51.308Z,96
2023-05-18T04:46:23.330Z,96
2023-05-18T04:46:46.046Z,96
2023-05-18T04:47:08.587Z,96
2023-05-18T04:47:43.624Z,96
2023-05-18T04:48:16.635Z,96
2023-05-18T04:48:47.269Z,96
2023-05-18T04:49:18.153Z,96
2023-05-18T04:49:51.432Z,96
2023-05-18T04:50:23.589Z,96
2023-05-18T04:50:46.643Z,96
2023-05-18T04:51:09.012Z,96
2023-05-18T04:51:43.509Z,96
2023-05-18T04:52:15.335Z,96
2023-05-18T04:52:47.251Z,96
2023-05-18T04:53:17.793Z,96
2023-05-18T04:53:51.284Z,96
2023-05-18T04:54:23.170Z,96
2023-05-18T04:54:45.937Z,96
2023-05-18T04:55:08.364Z,96
2023-05-18T04:55:44.857Z,96
2023-05-18T04:56:15.555Z,96
2023-05-18T04:56:47.347Z,96
2023-05-18T04:57:17.969Z,96
2023-05-18T04:57:51.186Z,96
2023-05-18T04:58:23.461Z,95
2023-05-18T04:58:46.190Z,95
2023-05-18T04:59:08.483Z,95
2023-05-18T04:59:43.477Z,95
2023-05-18T05:00:17.777Z,95
2023-05-18T05:00:47.426Z,95
2023-05-18T05:01:17.925Z,95
2023-05-18T05:01:51.969Z,95
2023-05-18T05:02:23.332Z,95
2023-05-18T05:02:46.238Z,95
2023-05-18T05:03:10.111Z,95
2023-05-18T05:04:15.320Z,95
2023-05-18T05:04:47.466Z,95
2023-05-18T05:05:18.173Z,95
2023-05-18T05:05:51.141Z,95
2023-05-18T05:06:23.277Z,95
2023-05-18T05:06:46.408Z,95
2023-05-18T05:07:09.081Z,95
2023-05-18T05:07:43.241Z,94
2023-05-18T05:08:15.283Z,94
2023-05-18T05:08:47.277Z,94
2023-05-18T05:09:17.748Z,94
2023-05-18T05:09:51.249Z,94
2023-05-18T05:10:23.428Z,94
2023-05-18T05:10:46.193Z,94
2023-05-18T05:11:08.470Z,94
2023-05-18T05:11:43.168Z,94
2023-05-18T05:12:16.854Z,94
2023-05-18T05:12:49.682Z,93
2023-05-18T05:13:19.248Z,93
2023-05-18T05:13:51.139Z,93
2023-05-18T05:14:23.818Z,93
2023-05-18T05:14:46.385Z,93
2023-05-18T05:15:09.075Z,93
2023-05-18T05:15:43.250Z,93
2023-05-18T05:16:15.289Z,93
2023-05-18T05:16:47.415Z,93
2023-05-18T05:17:18.174Z,92
2023-05-18T05:17:51.330Z,92
2023-05-18T05:18:23.489Z,92
2023-05-18T05:18:47.441Z,92
2023-05-18T05:19:08.766Z,92
2023-05-18T05:19:43.834Z,92
2023-05-18T05:20:15.397Z,91
2023-05-18T05:20:47.275Z,91
2023-05-18T05:21:17.967Z,91
2023-05-18T05:21:51.312Z,91
2023-05-18T05:22:23.215Z,91
2023-05-18T05:22:47.498Z,91
2023-05-18T05:23:09.620Z,90
2023-05-18T05:23:43.361Z,90
2023-05-18T05:24:16.679Z,90
2023-05-18T05:24:47.609Z,90
2023-05-18T05:25:17.773Z,90
2023-05-18T05:25:51.241Z,89
2023-05-18T05:26:23.211Z,89
2023-05-18T05:26:46.107Z,89
2023-05-18T05:27:08.657Z,89
2023-05-18T05:27:43.201Z,89
2023-05-18T05:28:15.293Z,89
2023-05-18T05:28:47.285Z,89
2023-05-18T05:29:17.774Z,89
2023-05-18T05:29:51.271Z,88
2023-05-18T05:30:23.525Z,88
2023-05-18T05:30:46.393Z,88
2023-05-18T05:31:08.956Z,87
2023-05-18T05:31:45.697Z,87
2023-05-18T05:32:10.399Z,87
2023-05-18T05:32:48.184Z,87
2023-05-18T05:33:19.079Z,87
2023-05-18T05:33:56.454Z,87
2023-05-18T05:34:18.814Z,87
2023-05-18T05:34:49.424Z,87
2023-05-18T05:35:27.256Z,87
2023-05-18T05:35:49.931Z,86
2023-05-18T05:36:12.335Z,86
2023-05-18T05:36:47.734Z,86
2023-05-18T05:37:18.057Z,86
2023-05-18T05:37:54.033Z,86
2023-05-18T05:38:24.251Z,86
2023-05-18T05:38:47.030Z,85
2023-05-18T05:39:09.739Z,85
2023-05-18T05:39:46.653Z,85
2023-05-18T05:40:15.589Z,85
2023-05-18T05:40:48.210Z,84
2023-05-18T05:41:17.904Z,84
2023-05-18T05:41:51.305Z,84
2023-05-18T05:42:26.404Z,84
2023-05-18T05:42:46.015Z,84
2023-05-18T05:43:09.031Z,83
2023-05-18T05:43:43.437Z,83
2023-05-18T05:44:15.466Z,83
2023-05-18T05:44:47.137Z,83
2023-05-18T05:45:18.173Z,83
2023-05-18T05:45:51.766Z,83
2023-05-18T05:46:24.354Z,82
2023-05-18T05:46:46.970Z,82
2023-05-18T05:47:09.187Z,82
2023-05-18T05:47:43.467Z,82
2023-05-18T05:48:15.253Z,82
2023-05-18T05:48:47.372Z,82
2023-05-18T05:49:17.895Z,82
2023-05-18T05:49:51.657Z,82
2023-05-18T05:50:26.409Z,82
2023-05-18T05:50:47.994Z,82
2023-05-18T05:51:11.036Z,82
2023-05-18T05:51:43.418Z,82
2023-05-18T05:52:16.636Z,82
2023-05-18T05:52:48.552Z,82
2023-05-18T05:53:20.932Z,81
2023-05-18T05:53:51.431Z,81
2023-05-18T05:54:23.782Z,81
2023-05-18T05:54:46.217Z,80
2023-05-18T05:55:09.250Z,80
2023-05-18T05:55:44.137Z,80
2023-05-18T05:56:15.982Z,79
2023-05-18T05:56:48.091Z,79
2023-05-18T05:57:19.023Z,79
2023-05-18T05:57:51.879Z,79
2023-05-18T05:58:23.430Z,79
2023-05-18T05:58:46.275Z,79
2023-05-18T05:59:09.335Z,79
2023-05-18T05:59:43.703Z,79
2023-05-18T06:00:20.301Z,78
2023-05-18T06:00:54.143Z,78
2023-05-18T06:01:18.907Z,78
2023-05-18T06:01:51.683Z,78
2023-05-18T06:02:23.344Z,78
2023-05-18T06:02:46.234Z,77
2023-05-18T06:03:11.194Z,77
2023-05-18T06:03:44.915Z,76
2023-05-18T06:04:15.520Z,76
2023-05-18T06:04:47.479Z,76
2023-05-18T06:05:18.001Z,76
2023-05-18T06:05:51.214Z,76
2023-05-18T06:06:23.264Z,76
2023-05-18T06:06:46.175Z,75
2023-05-18T06:07:08.371Z,75
2023-05-18T06:07:43.422Z,75
2023-05-18T06:08:15.520Z,75
2023-05-18T06:08:47.324Z,75
2023-05-18T06:09:17.843Z,75
2023-05-18T06:09:52.815Z,74
2023-05-18T06:10:23.218Z,74
2023-05-18T06:10:46.358Z,74
2023-05-18T06:11:10.008Z,73
2023-05-18T06:11:43.412Z,73
2023-05-18T06:12:17.884Z,73
2023-05-18T06:12:47.322Z,73
2023-05-18T06:13:20.311Z,72
2023-05-18T06:13:51.196Z,72
2023-05-18T06:14:23.477Z,73
2023-05-18T06:14:46.511Z,73
2023-05-18T06:15:08.977Z,73
2023-05-18T06:15:43.986Z,73
2023-05-18T06:16:15.450Z,74
2023-05-18T06:16:47.706Z,73
2023-05-18T06:17:18.131Z,73
2023-05-18T06:17:51.573Z,72
2023-05-18T06:18:23.357Z,72
2023-05-18T06:18:47.148Z,72
2023-05-18T06:19:09.026Z,72
2023-05-18T06:19:43.883Z,72
2023-05-18T06:20:20.959Z,72
2023-05-18T06:20:47.586Z,72
2023-05-18T06:21:18.056Z,73
2023-05-18T06:21:51.307Z,72
2023-05-18T06:22:23.294Z,72
2023-05-18T06:22:46.096Z,72
2023-05-18T06:23:08.359Z,72
2023-05-18T06:23:44.449Z,72
2023-05-18T06:24:15.433Z,73
2023-05-18T06:24:47.282Z,73
2023-05-18T06:25:19.476Z,73
2023-05-18T06:25:51.382Z,73
2023-05-18T06:26:23.326Z,73
2023-05-18T06:26:46.206Z,73
2023-05-18T06:27:08.505Z,74
2023-05-18T06:27:45.022Z,73
2023-05-18T06:28:20.961Z,72
2023-05-18T06:28:47.397Z,72
2023-05-18T06:29:17.949Z,71
2023-05-18T06:29:51.373Z,71
2023-05-18T06:30:23.356Z,71
2023-05-18T06:30:46.029Z,71
2023-05-18T06:31:08.425Z,71
2023-05-18T06:31:45.771Z,72
2023-05-18T06:32:15.478Z,72
2023-05-18T06:32:47.226Z,72
2023-05-18T06:33:18.098Z,71
2023-05-18T06:33:51.332Z,71
2023-05-18T06:34:23.380Z,71
2023-05-18T06:34:46.374Z,71
2023-05-18T06:35:08.648Z,71
2023-05-18T06:35:46.363Z,71
2023-05-18T06:36:15.592Z,71
2023-05-18T06:36:47.195Z,71
2023-05-18T06:37:18.080Z,71
2023-05-18T06:37:51.347Z,71
2023-05-18T06:38:23.352Z,71
2023-05-18T06:38:46.806Z,71
2023-05-18T06:39:08.641Z,70
2023-05-18T06:39:43.350Z,70
2023-05-18T06:40:15.477Z,70
2023-05-18T06:40:47.352Z,70
2023-05-18T06:41:18.029Z,71
2023-05-18T06:41:51.367Z,70
2023-05-18T06:42:23.257Z,69
2023-05-18T06:42:47.144Z,69
2023-05-18T06:43:08.192Z,70
2023-05-18T06:43:43.369Z,69
2023-05-18T06:44:15.776Z,70
2023-05-18T06:44:47.355Z,69
2023-05-18T06:45:18.282Z,69
2023-05-18T06:45:51.367Z,69
2023-05-18T06:46:23.371Z,69
2023-05-18T06:46:47.703Z,69
2023-05-18T06:47:08.523Z,71
2023-05-18T06:47:43.311Z,71
2023-05-18T06:48:15.324Z,71
2023-05-18T06:48:47.704Z,70
2023-05-18T06:49:20.280Z,70
2023-05-18T06:49:51.693Z,70
2023-05-18T06:50:17.402Z,70
2023-05-18T06:50:50.129Z,69
2023-05-18T06:51:28.312Z,69
2023-05-18T06:51:52.120Z,69
2023-05-18T06:52:13.977Z,68
2023-05-18T06:52:48.420Z,68
2023-05-18T06:53:18.084Z,67
2023-05-18T06:53:51.633Z,68
2023-05-18T06:54:23.331Z,68
2023-05-18T06:54:48.506Z,69
2023-05-18T06:55:08.465Z,70
2023-05-18T06:55:43.601Z,70
2023-05-18T06:56:15.484Z,70
2023-05-18T06:56:50.189Z,69
2023-05-18T06:57:19.696Z,69
2023-05-18T06:57:52.235Z,68
2023-05-18T06:58:23.729Z,67
2023-05-18T06:58:48.736Z,67
2023-05-18T06:59:09.216Z,67
2023-05-18T06:59:43.765Z,68
2023-05-18T07:00:18.639Z,68
2023-05-18T07:00:50.469Z,68
2023-05-18T07:01:24.269Z,68
2023-05-18T07:01:52.413Z,68
2023-05-18T07:02:23.920Z,68
2023-05-18T07:02:46.834Z,68
2023-05-18T07:03:11.698Z,68
2023-05-18T07:03:44.342Z,68
2023-05-18T07:04:16.010Z,68
2023-05-18T07:04:50.031Z,67
2023-05-18T07:05:19.747Z,67
2023-05-18T07:05:51.747Z,66
2023-05-18T07:06:23.500Z,66
2023-05-18T07:06:46.328Z,66
2023-05-18T07:07:09.842Z,66
2023-05-18T07:07:43.605Z,65
2023-05-18T07:08:15.954Z,65
2023-05-18T07:08:47.640Z,66
2023-05-18T07:09:18.507Z,66
2023-05-18T07:09:51.552Z,65